sensor_id;sensor_type;location;lat;lon;timestamp;P1;durP1;ratioP1;P2;durP2;ratioP2
54388;SDS011;40975;50.390;8.640;2022-11-15T00:00:06;8.18;;;5.40;;
54388;SDS011;40975;50.390;8.640;2022-11-15T00:02:54;8.43;;;5.22;;
54388;SDS011;40975;50.390;8.640;2022-11-15T00:05:38;9.45;;;4.82;;
54388;SDS011;40975;50.390;8.640;2022-11-15T00:08:22;9.32;;;5.03;;
54388;SDS011;40975;50.390;8.640;2022-11-15T00:11:06;7.50;;;4.57;;
54388;SDS011;40975;50.390;8.640;2022-11-15T00:13:50;8.50;;;5.32;;
54388;SDS011;40975;50.390;8.640;2022-11-15T00:16:34;8.98;;;5.03;;
54388;SDS011;40975;50.390;8.640;2022-11-15T00:19:17;8.05;;;4.93;;
54388;SDS011;40975;50.390;8.640;2022-11-15T00:22:01;8.23;;;4.78;;
54388;SDS011;40975;50.390;8.640;2022-11-15T00:24:45;7.35;;;4.95;;
54388;SDS011;40975;50.390;8.640;2022-11-15T00:27:29;13.57;;;5.47;;
54388;SDS011;40975;50.390;8.640;2022-11-15T00:30:13;6.80;;;4.22;;
54388;SDS011;40975;50.390;8.640;2022-11-15T00:33:01;9.60;;;5.70;;
54388;SDS011;40975;50.390;8.640;2022-11-15T00:35:48;9.80;;;5.20;;
54388;SDS011;40975;50.390;8.640;2022-11-15T00:38:32;11.85;;;5.93;;
54388;SDS011;40975;50.390;8.640;2022-11-15T00:41:17;10.07;;;4.68;;
54388;SDS011;40975;50.390;8.640;2022-11-15T00:44:01;7.38;;;4.53;;
54388;SDS011;40975;50.390;8.640;2022-11-15T00:46:45;7.43;;;4.15;;
54388;SDS011;40975;50.390;8.640;2022-11-15T00:49:29;7.68;;;4.15;;
54388;SDS011;40975;50.390;8.640;2022-11-15T00:52:13;10.07;;;4.95;;
54388;SDS011;40975;50.390;8.640;2022-11-15T00:54:56;8.73;;;4.75;;
54388;SDS011;40975;50.390;8.640;2022-11-15T00:57:41;7.65;;;4.30;;
54388;SDS011;40975;50.390;8.640;2022-11-15T01:00:24;6.35;;;3.83;;
54388;SDS011;40975;50.390;8.640;2022-11-15T01:03:08;7.60;;;3.75;;
54388;SDS011;40975;50.390;8.640;2022-11-15T01:05:52;7.72;;;4.97;;
54388;SDS011;40975;50.390;8.640;2022-11-15T01:08:37;6.03;;;4.15;;
54388;SDS011;40975;50.390;8.640;2022-11-15T01:11:22;5.72;;;3.70;;
54388;SDS011;40975;50.390;8.640;2022-11-15T01:14:06;3.80;;;3.10;;
54388;SDS011;40975;50.390;8.640;2022-11-15T01:16:50;9.30;;;4.10;;
54388;SDS011;40975;50.390;8.640;2022-11-15T01:19:34;7.03;;;3.85;;
54388;SDS011;40975;50.390;8.640;2022-11-15T01:22:18;4.93;;;3.67;;
54388;SDS011;40975;50.390;8.640;2022-11-15T01:25:02;4.90;;;3.40;;
54388;SDS011;40975;50.390;8.640;2022-11-15T01:27:46;6.18;;;3.65;;
54388;SDS011;40975;50.390;8.640;2022-11-15T01:30:30;7.30;;;4.10;;
54388;SDS011;40975;50.390;8.640;2022-11-15T01:33:14;7.47;;;3.55;;
54388;SDS011;40975;50.390;8.640;2022-11-15T01:35:58;8.30;;;3.80;;
54388;SDS011;40975;50.390;8.640;2022-11-15T01:39:05;6.43;;;3.65;;
54388;SDS011;40975;50.390;8.640;2022-11-15T01:41:49;6.22;;;3.85;;
54388;SDS011;40975;50.390;8.640;2022-11-15T01:47:18;7.45;;;4.30;;
54388;SDS011;40975;50.390;8.640;2022-11-15T01:50:08;7.05;;;4.00;;
54388;SDS011;40975;50.390;8.640;2022-11-15T01:52:55;6.95;;;3.72;;
54388;SDS011;40975;50.390;8.640;2022-11-15T01:55:39;6.45;;;4.55;;
54388;SDS011;40975;50.390;8.640;2022-11-15T01:58:23;7.68;;;4.40;;
54388;SDS011;40975;50.390;8.640;2022-11-15T02:01:08;6.07;;;4.32;;
54388;SDS011;40975;50.390;8.640;2022-11-15T02:03:54;5.32;;;4.03;;
54388;SDS011;40975;50.390;8.640;2022-11-15T02:06:42;7.18;;;4.50;;
54388;SDS011;40975;50.390;8.640;2022-11-15T02:09:27;7.50;;;4.30;;
54388;SDS011;40975;50.390;8.640;2022-11-15T02:12:11;6.75;;;4.70;;
54388;SDS011;40975;50.390;8.640;2022-11-15T02:14:58;5.93;;;3.80;;
54388;SDS011;40975;50.390;8.640;2022-11-15T02:20:58;7.57;;;4.28;;
54388;SDS011;40975;50.390;8.640;2022-11-15T02:24:16;7.75;;;4.50;;
54388;SDS011;40975;50.390;8.640;2022-11-15T02:30:29;9.60;;;4.32;;
54388;SDS011;40975;50.390;8.640;2022-11-15T02:36:42;7.68;;;4.50;;
54388;SDS011;40975;50.390;8.640;2022-11-15T02:39:56;7.47;;;4.28;;
54388;SDS011;40975;50.390;8.640;2022-11-15T02:42:56;6.50;;;4.03;;
54388;SDS011;40975;50.390;8.640;2022-11-15T02:49:01;6.93;;;4.28;;
54388;SDS011;40975;50.390;8.640;2022-11-15T02:51:46;7.47;;;4.18;;
54388;SDS011;40975;50.390;8.640;2022-11-15T02:54:32;7.18;;;4.43;;
54388;SDS011;40975;50.390;8.640;2022-11-15T02:57:17;8.18;;;4.20;;
54388;SDS011;40975;50.390;8.640;2022-11-15T03:00:17;7.47;;;4.30;;
54388;SDS011;40975;50.390;8.640;2022-11-15T03:03:22;6.05;;;3.30;;
54388;SDS011;40975;50.390;8.640;2022-11-15T03:06:42;6.53;;;3.95;;
54388;SDS011;40975;50.390;8.640;2022-11-15T03:09:34;5.97;;;4.18;;
54388;SDS011;40975;50.390;8.640;2022-11-15T03:12:32;7.20;;;4.15;;
54388;SDS011;40975;50.390;8.640;2022-11-15T03:15:29;7.05;;;4.18;;
54388;SDS011;40975;50.390;8.640;2022-11-15T03:18:17;8.33;;;4.40;;
54388;SDS011;40975;50.390;8.640;2022-11-15T03:21:06;5.70;;;4.10;;
54388;SDS011;40975;50.390;8.640;2022-11-15T03:23:52;6.18;;;3.72;;
54388;SDS011;40975;50.390;8.640;2022-11-15T03:26:39;6.07;;;4.15;;
54388;SDS011;40975;50.390;8.640;2022-11-15T03:29:31;7.95;;;4.18;;
54388;SDS011;40975;50.390;8.640;2022-11-15T03:32:19;6.63;;;4.32;;
54388;SDS011;40975;50.390;8.640;2022-11-15T03:35:09;5.43;;;3.80;;
54388;SDS011;40975;50.390;8.640;2022-11-15T03:38:05;6.32;;;4.20;;
54388;SDS011;40975;50.390;8.640;2022-11-15T03:41:01;7.00;;;4.07;;
54388;SDS011;40975;50.390;8.640;2022-11-15T03:46:52;7.75;;;4.00;;
54388;SDS011;40975;50.390;8.640;2022-11-15T03:49:46;6.32;;;3.78;;
54388;SDS011;40975;50.390;8.640;2022-11-15T03:52:35;6.47;;;3.67;;
54388;SDS011;40975;50.390;8.640;2022-11-15T03:55:20;8.93;;;3.90;;
54388;SDS011;40975;50.390;8.640;2022-11-15T03:58:05;5.15;;;3.53;;
54388;SDS011;40975;50.390;8.640;2022-11-15T04:00:49;6.70;;;3.42;;
54388;SDS011;40975;50.390;8.640;2022-11-15T04:03:33;7.95;;;4.10;;
54388;SDS011;40975;50.390;8.640;2022-11-15T04:06:17;6.47;;;4.43;;
54388;SDS011;40975;50.390;8.640;2022-11-15T04:09:01;6.55;;;4.40;;
54388;SDS011;40975;50.390;8.640;2022-11-15T04:11:45;8.93;;;4.05;;
54388;SDS011;40975;50.390;8.640;2022-11-15T04:14:29;5.18;;;3.70;;
54388;SDS011;40975;50.390;8.640;2022-11-15T04:17:13;4.85;;;3.35;;
54388;SDS011;40975;50.390;8.640;2022-11-15T04:19:57;10.27;;;4.88;;
54388;SDS011;40975;50.390;8.640;2022-11-15T04:23:00;9.88;;;5.32;;
54388;SDS011;40975;50.390;8.640;2022-11-15T04:26:11;10.48;;;3.97;;
54388;SDS011;40975;50.390;8.640;2022-11-15T04:28:58;8.35;;;3.70;;
54388;SDS011;40975;50.390;8.640;2022-11-15T04:32:01;5.78;;;3.40;;
54388;SDS011;40975;50.390;8.640;2022-11-15T04:34:46;5.82;;;3.30;;
54388;SDS011;40975;50.390;8.640;2022-11-15T04:37:31;7.63;;;3.67;;
54388;SDS011;40975;50.390;8.640;2022-11-15T04:40:14;4.30;;;2.72;;
54388;SDS011;40975;50.390;8.640;2022-11-15T04:42:58;4.78;;;3.60;;
54388;SDS011;40975;50.390;8.640;2022-11-15T04:45:43;6.60;;;3.60;;
54388;SDS011;40975;50.390;8.640;2022-11-15T04:48:27;8.75;;;3.85;;
54388;SDS011;40975;50.390;8.640;2022-11-15T04:51:10;4.15;;;3.00;;
54388;SDS011;40975;50.390;8.640;2022-11-15T04:53:54;5.93;;;3.92;;
54388;SDS011;40975;50.390;8.640;2022-11-15T04:56:38;5.70;;;3.65;;
54388;SDS011;40975;50.390;8.640;2022-11-15T04:59:22;7.25;;;3.38;;
54388;SDS011;40975;50.390;8.640;2022-11-15T05:02:06;5.20;;;3.38;;
54388;SDS011;40975;50.390;8.640;2022-11-15T05:04:50;7.53;;;3.55;;
54388;SDS011;40975;50.390;8.640;2022-11-15T05:07:34;4.78;;;3.10;;
54388;SDS011;40975;50.390;8.640;2022-11-15T05:10:18;5.30;;;2.88;;
54388;SDS011;40975;50.390;8.640;2022-11-15T05:13:02;4.53;;;3.10;;
54388;SDS011;40975;50.390;8.640;2022-11-15T05:15:46;5.32;;;3.38;;
54388;SDS011;40975;50.390;8.640;2022-11-15T05:18:30;8.30;;;3.85;;
54388;SDS011;40975;50.390;8.640;2022-11-15T05:21:14;7.57;;;3.60;;
54388;SDS011;40975;50.390;8.640;2022-11-15T05:23:58;6.55;;;3.33;;
54388;SDS011;40975;50.390;8.640;2022-11-15T05:26:43;6.18;;;3.53;;
54388;SDS011;40975;50.390;8.640;2022-11-15T05:29:27;6.72;;;3.60;;
54388;SDS011;40975;50.390;8.640;2022-11-15T05:32:11;7.38;;;3.40;;
54388;SDS011;40975;50.390;8.640;2022-11-15T05:34:55;6.20;;;3.90;;
54388;SDS011;40975;50.390;8.640;2022-11-15T05:37:39;9.43;;;4.72;;
54388;SDS011;40975;50.390;8.640;2022-11-15T05:40:23;7.22;;;4.05;;
54388;SDS011;40975;50.390;8.640;2022-11-15T05:43:08;7.07;;;4.78;;
54388;SDS011;40975;50.390;8.640;2022-11-15T05:45:53;9.32;;;4.78;;
54388;SDS011;40975;50.390;8.640;2022-11-15T05:48:37;6.13;;;4.47;;
54388;SDS011;40975;50.390;8.640;2022-11-15T05:51:25;6.55;;;4.38;;
54388;SDS011;40975;50.390;8.640;2022-11-15T05:54:12;8.32;;;5.05;;
54388;SDS011;40975;50.390;8.640;2022-11-15T05:56:56;8.52;;;5.65;;
54388;SDS011;40975;50.390;8.640;2022-11-15T05:59:40;13.82;;;9.48;;
54388;SDS011;40975;50.390;8.640;2022-11-15T06:02:26;9.13;;;6.22;;
54388;SDS011;40975;50.390;8.640;2022-11-15T06:05:10;12.45;;;5.10;;
54388;SDS011;40975;50.390;8.640;2022-11-15T06:07:57;6.85;;;4.78;;
54388;SDS011;40975;50.390;8.640;2022-11-15T06:10:42;10.32;;;4.53;;
54388;SDS011;40975;50.390;8.640;2022-11-15T06:13:26;7.32;;;4.63;;
54388;SDS011;40975;50.390;8.640;2022-11-15T06:16:10;8.77;;;4.82;;
54388;SDS011;40975;50.390;8.640;2022-11-15T06:18:53;9.13;;;5.13;;
54388;SDS011;40975;50.390;8.640;2022-11-15T06:21:37;8.38;;;5.40;;
54388;SDS011;40975;50.390;8.640;2022-11-15T06:24:21;7.30;;;5.35;;
54388;SDS011;40975;50.390;8.640;2022-11-15T06:27:05;10.38;;;6.07;;
54388;SDS011;40975;50.390;8.640;2022-11-15T06:29:49;10.38;;;5.63;;
54388;SDS011;40975;50.390;8.640;2022-11-15T06:32:33;11.68;;;8.93;;
54388;SDS011;40975;50.390;8.640;2022-11-15T06:35:17;10.32;;;7.68;;
54388;SDS011;40975;50.390;8.640;2022-11-15T06:38:02;11.50;;;5.68;;
54388;SDS011;40975;50.390;8.640;2022-11-15T06:40:47;8.02;;;5.68;;
54388;SDS011;40975;50.390;8.640;2022-11-15T06:43:31;8.25;;;5.07;;
54388;SDS011;40975;50.390;8.640;2022-11-15T06:46:15;8.68;;;5.50;;
54388;SDS011;40975;50.390;8.640;2022-11-15T06:48:59;7.93;;;4.65;;
54388;SDS011;40975;50.390;8.640;2022-11-15T06:51:43;6.38;;;4.18;;
54388;SDS011;40975;50.390;8.640;2022-11-15T06:54:27;9.13;;;4.15;;
54388;SDS011;40975;50.390;8.640;2022-11-15T06:57:11;7.53;;;4.70;;
54388;SDS011;40975;50.390;8.640;2022-11-15T06:59:55;6.90;;;4.55;;
54388;SDS011;40975;50.390;8.640;2022-11-15T07:02:39;6.28;;;4.25;;
54388;SDS011;40975;50.390;8.640;2022-11-15T07:05:23;6.30;;;4.65;;
54388;SDS011;40975;50.390;8.640;2022-11-15T07:08:06;6.28;;;4.53;;
54388;SDS011;40975;50.390;8.640;2022-11-15T07:10:51;7.65;;;4.45;;
54388;SDS011;40975;50.390;8.640;2022-11-15T07:13:35;7.18;;;4.75;;
54388;SDS011;40975;50.390;8.640;2022-11-15T07:16:20;9.30;;;4.43;;
54388;SDS011;40975;50.390;8.640;2022-11-15T07:19:04;6.70;;;4.25;;
54388;SDS011;40975;50.390;8.640;2022-11-15T07:21:48;8.75;;;4.80;;
54388;SDS011;40975;50.390;8.640;2022-11-15T07:24:32;8.32;;;5.40;;
54388;SDS011;40975;50.390;8.640;2022-11-15T07:27:16;8.32;;;4.40;;
54388;SDS011;40975;50.390;8.640;2022-11-15T07:30:00;8.57;;;4.50;;
54388;SDS011;40975;50.390;8.640;2022-11-15T07:32:44;5.22;;;4.43;;
54388;SDS011;40975;50.390;8.640;2022-11-15T07:35:28;9.85;;;5.15;;
54388;SDS011;40975;50.390;8.640;2022-11-15T07:38:13;9.23;;;4.68;;
54388;SDS011;40975;50.390;8.640;2022-11-15T07:40:59;8.55;;;4.85;;
54388;SDS011;40975;50.390;8.640;2022-11-15T07:43:44;7.22;;;4.88;;
54388;SDS011;40975;50.390;8.640;2022-11-15T07:46:28;8.30;;;5.22;;
54388;SDS011;40975;50.390;8.640;2022-11-15T07:49:12;10.27;;;6.38;;
54388;SDS011;40975;50.390;8.640;2022-11-15T07:51:56;7.85;;;5.00;;
54388;SDS011;40975;50.390;8.640;2022-11-15T07:54:40;8.18;;;5.05;;
54388;SDS011;40975;50.390;8.640;2022-11-15T07:57:23;9.05;;;5.13;;
54388;SDS011;40975;50.390;8.640;2022-11-15T08:00:08;12.30;;;6.82;;
54388;SDS011;40975;50.390;8.640;2022-11-15T08:02:52;6.53;;;4.93;;
54388;SDS011;40975;50.390;8.640;2022-11-15T08:05:36;6.85;;;4.90;;
54388;SDS011;40975;50.390;8.640;2022-11-15T08:08:21;8.77;;;5.15;;
54388;SDS011;40975;50.390;8.640;2022-11-15T08:11:05;8.45;;;5.47;;
54388;SDS011;40975;50.390;8.640;2022-11-15T08:13:49;8.10;;;5.07;;
54388;SDS011;40975;50.390;8.640;2022-11-15T08:16:33;7.53;;;5.10;;
54388;SDS011;40975;50.390;8.640;2022-11-15T08:19:16;10.23;;;5.75;;
54388;SDS011;40975;50.390;8.640;2022-11-15T08:22:00;9.43;;;4.45;;
54388;SDS011;40975;50.390;8.640;2022-11-15T08:24:44;10.65;;;5.07;;
54388;SDS011;40975;50.390;8.640;2022-11-15T08:27:28;8.93;;;4.85;;
54388;SDS011;40975;50.390;8.640;2022-11-15T08:30:12;8.10;;;4.90;;
54388;SDS011;40975;50.390;8.640;2022-11-15T08:32:58;10.48;;;4.53;;
54388;SDS011;40975;50.390;8.640;2022-11-15T08:35:42;7.25;;;4.53;;
54388;SDS011;40975;50.390;8.640;2022-11-15T08:38:27;6.60;;;4.53;;
54388;SDS011;40975;50.390;8.640;2022-11-15T08:41:14;7.75;;;3.83;;
54388;SDS011;40975;50.390;8.640;2022-11-15T08:44:03;8.75;;;4.00;;
54388;SDS011;40975;50.390;8.640;2022-11-15T08:46:47;6.85;;;3.67;;
54388;SDS011;40975;50.390;8.640;2022-11-15T08:49:31;5.40;;;3.85;;
54388;SDS011;40975;50.390;8.640;2022-11-15T08:52:15;8.57;;;3.40;;
54388;SDS011;40975;50.390;8.640;2022-11-15T08:54:59;6.68;;;4.00;;
54388;SDS011;40975;50.390;8.640;2022-11-15T08:57:44;5.78;;;4.00;;
54388;SDS011;40975;50.390;8.640;2022-11-15T09:00:28;5.80;;;4.20;;
54388;SDS011;40975;50.390;8.640;2022-11-15T09:03:12;8.18;;;4.47;;
54388;SDS011;40975;50.390;8.640;2022-11-15T09:05:59;6.68;;;4.05;;
54388;SDS011;40975;50.390;8.640;2022-11-15T09:08:44;5.13;;;3.60;;
54388;SDS011;40975;50.390;8.640;2022-11-15T09:11:28;5.40;;;3.50;;
54388;SDS011;40975;50.390;8.640;2022-11-15T09:14:12;5.78;;;3.90;;
54388;SDS011;40975;50.390;8.640;2022-11-15T09:16:57;6.30;;;3.67;;
54388;SDS011;40975;50.390;8.640;2022-11-15T09:19:41;6.18;;;3.70;;
54388;SDS011;40975;50.390;8.640;2022-11-15T09:22:25;5.72;;;3.58;;
54388;SDS011;40975;50.390;8.640;2022-11-15T09:25:09;5.25;;;3.55;;
54388;SDS011;40975;50.390;8.640;2022-11-15T09:27:53;4.90;;;3.42;;
54388;SDS011;40975;50.390;8.640;2022-11-15T09:30:36;4.22;;;3.80;;
54388;SDS011;40975;50.390;8.640;2022-11-15T09:33:20;7.70;;;4.13;;
54388;SDS011;40975;50.390;8.640;2022-11-15T09:36:06;5.95;;;4.07;;
54388;SDS011;40975;50.390;8.640;2022-11-15T09:38:52;6.00;;;3.88;;
54388;SDS011;40975;50.390;8.640;2022-11-15T09:44:41;7.07;;;3.65;;
54388;SDS011;40975;50.390;8.640;2022-11-15T09:47:39;6.57;;;4.50;;
54388;SDS011;40975;50.390;8.640;2022-11-15T09:50:40;7.57;;;4.25;;
54388;SDS011;40975;50.390;8.640;2022-11-15T09:53:12;7.90;;;3.60;;
54388;SDS011;40975;50.390;8.640;2022-11-15T09:55:49;4.72;;;3.53;;
54388;SDS011;40975;50.390;8.640;2022-11-15T09:58:26;4.90;;;3.10;;
54388;SDS011;40975;50.390;8.640;2022-11-15T10:00:55;5.47;;;3.50;;
54388;SDS011;40975;50.390;8.640;2022-11-15T10:03:33;7.30;;;3.13;;
54388;SDS011;40975;50.390;8.640;2022-11-15T10:06:02;5.38;;;3.03;;
54388;SDS011;40975;50.390;8.640;2022-11-15T10:08:53;8.27;;;4.50;;
54388;SDS011;40975;50.390;8.640;2022-11-15T10:11:23;3.35;;;2.90;;
54388;SDS011;40975;50.390;8.640;2022-11-15T10:13:51;5.40;;;3.88;;
54388;SDS011;40975;50.390;8.640;2022-11-15T10:24:48;7.57;;;3.83;;
54388;SDS011;40975;50.390;8.640;2022-11-15T10:27:18;5.97;;;3.97;;
54388;SDS011;40975;50.390;8.640;2022-11-15T10:29:46;5.90;;;4.40;;
54388;SDS011;40975;50.390;8.640;2022-11-15T10:32:15;8.73;;;3.63;;
54388;SDS011;40975;50.390;8.640;2022-11-15T10:34:46;5.25;;;3.53;;
54388;SDS011;40975;50.390;8.640;2022-11-15T10:37:13;4.88;;;3.58;;
54388;SDS011;40975;50.390;8.640;2022-11-15T10:39:38;6.45;;;3.80;;
54388;SDS011;40975;50.390;8.640;2022-11-15T10:42:17;4.07;;;3.35;;
54388;SDS011;40975;50.390;8.640;2022-11-15T10:44:50;7.43;;;3.53;;
54388;SDS011;40975;50.390;8.640;2022-11-15T10:49:59;6.38;;;4.03;;
54388;SDS011;40975;50.390;8.640;2022-11-15T10:52:30;4.22;;;2.95;;
54388;SDS011;40975;50.390;8.640;2022-11-15T10:57:47;3.53;;;2.80;;
54388;SDS011;40975;50.390;8.640;2022-11-15T11:02:45;6.68;;;3.90;;
54388;SDS011;40975;50.390;8.640;2022-11-15T11:05:28;3.78;;;3.00;;
54388;SDS011;40975;50.390;8.640;2022-11-15T11:07:57;6.20;;;4.10;;
54388;SDS011;40975;50.390;8.640;2022-11-15T11:10:57;4.32;;;2.63;;
54388;SDS011;40975;50.390;8.640;2022-11-15T11:16:40;5.55;;;2.60;;
54388;SDS011;40975;50.390;8.640;2022-11-15T11:19:27;3.67;;;2.17;;
54388;SDS011;40975;50.390;8.640;2022-11-15T11:22:18;3.60;;;2.42;;
54388;SDS011;40975;50.390;8.640;2022-11-15T11:27:36;2.83;;;2.10;;
54388;SDS011;40975;50.390;8.640;2022-11-15T11:30:17;5.65;;;2.70;;
54388;SDS011;40975;50.390;8.640;2022-11-15T11:33:05;5.55;;;3.20;;
54388;SDS011;40975;50.390;8.640;2022-11-15T11:38:35;4.72;;;2.20;;
54388;SDS011;40975;50.390;8.640;2022-11-15T11:44:17;2.67;;;1.70;;
54388;SDS011;40975;50.390;8.640;2022-11-15T11:47:09;3.22;;;1.67;;
54388;SDS011;40975;50.390;8.640;2022-11-15T11:49:57;2.15;;;1.80;;
54388;SDS011;40975;50.390;8.640;2022-11-15T11:55:10;3.53;;;2.38;;
54388;SDS011;40975;50.390;8.640;2022-11-15T12:00:40;3.78;;;2.95;;
54388;SDS011;40975;50.390;8.640;2022-11-15T12:03:12;4.75;;;3.63;;
54388;SDS011;40975;50.390;8.640;2022-11-15T12:05:44;3.83;;;3.33;;
54388;SDS011;40975;50.390;8.640;2022-11-15T12:08:35;6.27;;;3.70;;
54388;SDS011;40975;50.390;8.640;2022-11-15T12:11:46;5.72;;;4.22;;
54388;SDS011;40975;50.390;8.640;2022-11-15T12:14:22;7.15;;;4.28;;
54388;SDS011;40975;50.390;8.640;2022-11-15T12:16:53;5.25;;;4.38;;
54388;SDS011;40975;50.390;8.640;2022-11-15T12:19:19;9.13;;;4.30;;
54388;SDS011;40975;50.390;8.640;2022-11-15T12:22:04;5.57;;;4.55;;
54388;SDS011;40975;50.390;8.640;2022-11-15T12:28:17;7.03;;;5.25;;
54388;SDS011;40975;50.390;8.640;2022-11-15T12:31:12;8.65;;;5.35;;
54388;SDS011;40975;50.390;8.640;2022-11-15T12:33:55;9.10;;;4.63;;
54388;SDS011;40975;50.390;8.640;2022-11-15T12:39:03;6.77;;;4.47;;
54388;SDS011;40975;50.390;8.640;2022-11-15T12:41:34;6.38;;;4.82;;
54388;SDS011;40975;50.390;8.640;2022-11-15T12:44:11;7.57;;;4.53;;
54388;SDS011;40975;50.390;8.640;2022-11-15T12:57:05;6.63;;;3.80;;
54388;SDS011;40975;50.390;8.640;2022-11-15T12:59:47;5.00;;;3.55;;
54388;SDS011;40975;50.390;8.640;2022-11-15T13:02:24;6.60;;;3.63;;
54388;SDS011;40975;50.390;8.640;2022-11-15T13:12:56;4.85;;;3.15;;
54388;SDS011;40975;50.390;8.640;2022-11-15T13:15:58;3.88;;;3.00;;
54388;SDS011;40975;50.390;8.640;2022-11-15T13:23:21;5.53;;;2.72;;
54388;SDS011;40975;50.390;8.640;2022-11-15T13:26:10;3.70;;;2.42;;
54388;SDS011;40975;50.390;8.640;2022-11-15T13:28:42;4.68;;;2.97;;
54388;SDS011;40975;50.390;8.640;2022-11-15T13:33:55;3.03;;;2.58;;
54388;SDS011;40975;50.390;8.640;2022-11-15T13:36:24;4.55;;;2.90;;
54388;SDS011;40975;50.390;8.640;2022-11-15T13:38:57;5.28;;;3.13;;
54388;SDS011;40975;50.390;8.640;2022-11-15T13:41:34;4.35;;;3.40;;
54388;SDS011;40975;50.390;8.640;2022-11-15T13:44:01;3.92;;;2.92;;
54388;SDS011;40975;50.390;8.640;2022-11-15T13:46:29;5.38;;;3.20;;
54388;SDS011;40975;50.390;8.640;2022-11-15T13:48:57;4.97;;;3.42;;
54388;SDS011;40975;50.390;8.640;2022-11-15T13:53:58;8.02;;;4.10;;
54388;SDS011;40975;50.390;8.640;2022-11-15T13:56:46;6.27;;;4.10;;
54388;SDS011;40975;50.390;8.640;2022-11-15T13:59:17;6.13;;;3.53;;
54388;SDS011;40975;50.390;8.640;2022-11-15T14:01:50;8.30;;;3.95;;
54388;SDS011;40975;50.390;8.640;2022-11-15T14:04:18;6.10;;;3.42;;
54388;SDS011;40975;50.390;8.640;2022-11-15T14:06:47;3.88;;;3.53;;
54388;SDS011;40975;50.390;8.640;2022-11-15T14:09:29;4.70;;;3.00;;
54388;SDS011;40975;50.390;8.640;2022-11-15T14:12:25;5.07;;;3.20;;
54388;SDS011;40975;50.390;8.640;2022-11-15T14:14:56;5.13;;;3.20;;
54388;SDS011;40975;50.390;8.640;2022-11-15T14:19:54;5.15;;;3.20;;
54388;SDS011;40975;50.390;8.640;2022-11-15T14:22:20;3.88;;;2.50;;
54388;SDS011;40975;50.390;8.640;2022-11-15T14:24:47;3.50;;;2.30;;
54388;SDS011;40975;50.390;8.640;2022-11-15T14:27:28;4.75;;;2.53;;
54388;SDS011;40975;50.390;8.640;2022-11-15T14:29:54;4.00;;;2.47;;
54388;SDS011;40975;50.390;8.640;2022-11-15T14:32:21;6.35;;;3.40;;
54388;SDS011;40975;50.390;8.640;2022-11-15T14:34:48;4.07;;;2.55;;
54388;SDS011;40975;50.390;8.640;2022-11-15T14:37:28;6.78;;;2.60;;
54388;SDS011;40975;50.390;8.640;2022-11-15T14:39:59;5.55;;;3.33;;
54388;SDS011;40975;50.390;8.640;2022-11-15T14:42:29;4.93;;;2.63;;
54388;SDS011;40975;50.390;8.640;2022-11-15T14:44:54;5.43;;;2.47;;
54388;SDS011;40975;50.390;8.640;2022-11-15T14:47:20;6.32;;;2.58;;
54388;SDS011;40975;50.390;8.640;2022-11-15T14:49:47;5.13;;;2.72;;
54388;SDS011;40975;50.390;8.640;2022-11-15T14:52:29;4.30;;;2.90;;
54388;SDS011;40975;50.390;8.640;2022-11-15T14:54:59;4.63;;;2.95;;
54388;SDS011;40975;50.390;8.640;2022-11-15T14:57:27;4.57;;;3.03;;
54388;SDS011;40975;50.390;8.640;2022-11-15T14:59:53;5.78;;;2.92;;
54388;SDS011;40975;50.390;8.640;2022-11-15T15:02:19;5.03;;;2.90;;
54388;SDS011;40975;50.390;8.640;2022-11-15T15:04:46;5.97;;;3.28;;
54388;SDS011;40975;50.390;8.640;2022-11-15T15:07:14;4.85;;;3.50;;
54388;SDS011;40975;50.390;8.640;2022-11-15T15:09:39;5.78;;;3.50;;
54388;SDS011;40975;50.390;8.640;2022-11-15T15:12:11;5.65;;;3.97;;
54388;SDS011;40975;50.390;8.640;2022-11-15T15:14:47;4.18;;;2.90;;
54388;SDS011;40975;50.390;8.640;2022-11-15T15:17:15;3.58;;;2.65;;
54388;SDS011;40975;50.390;8.640;2022-11-15T15:19:41;5.60;;;3.13;;
54388;SDS011;40975;50.390;8.640;2022-11-15T15:22:09;5.88;;;3.30;;
54388;SDS011;40975;50.390;8.640;2022-11-15T15:24:39;6.45;;;4.15;;
54388;SDS011;40975;50.390;8.640;2022-11-15T15:27:04;6.80;;;3.88;;
54388;SDS011;40975;50.390;8.640;2022-11-15T15:29:29;5.95;;;3.47;;
54388;SDS011;40975;50.390;8.640;2022-11-15T15:31:54;5.22;;;3.88;;
54388;SDS011;40975;50.390;8.640;2022-11-15T15:34:20;8.07;;;6.40;;
54388;SDS011;40975;50.390;8.640;2022-11-15T15:36:45;9.88;;;5.80;;
54388;SDS011;40975;50.390;8.640;2022-11-15T15:39:10;6.95;;;4.72;;
54388;SDS011;40975;50.390;8.640;2022-11-15T15:41:37;5.43;;;4.18;;
54388;SDS011;40975;50.390;8.640;2022-11-15T15:44:02;6.75;;;4.25;;
54388;SDS011;40975;50.390;8.640;2022-11-15T15:46:27;6.25;;;4.40;;
54388;SDS011;40975;50.390;8.640;2022-11-15T15:48:53;6.90;;;4.72;;
54388;SDS011;40975;50.390;8.640;2022-11-15T15:51:18;10.77;;;5.13;;
54388;SDS011;40975;50.390;8.640;2022-11-15T15:53:43;7.30;;;4.75;;
54388;SDS011;40975;50.390;8.640;2022-11-15T15:56:09;7.60;;;4.75;;
54388;SDS011;40975;50.390;8.640;2022-11-15T15:58:34;7.22;;;5.60;;
54388;SDS011;40975;50.390;8.640;2022-11-15T16:01:00;9.15;;;5.07;;
54388;SDS011;40975;50.390;8.640;2022-11-15T16:03:25;4.65;;;3.55;;
54388;SDS011;40975;50.390;8.640;2022-11-15T16:05:52;5.68;;;3.92;;
54388;SDS011;40975;50.390;8.640;2022-11-15T16:08:18;5.95;;;3.28;;
54388;SDS011;40975;50.390;8.640;2022-11-15T16:10:45;3.92;;;3.35;;
54388;SDS011;40975;50.390;8.640;2022-11-15T16:13:11;5.75;;;3.30;;
54388;SDS011;40975;50.390;8.640;2022-11-15T16:15:36;6.32;;;3.20;;
54388;SDS011;40975;50.390;8.640;2022-11-15T16:18:02;4.78;;;2.67;;
54388;SDS011;40975;50.390;8.640;2022-11-15T16:22:54;5.70;;;3.80;;
54388;SDS011;40975;50.390;8.640;2022-11-15T16:25:19;5.90;;;3.67;;
54388;SDS011;40975;50.390;8.640;2022-11-15T16:27:45;4.88;;;3.45;;
54388;SDS011;40975;50.390;8.640;2022-11-15T16:30:14;6.20;;;4.15;;
54388;SDS011;40975;50.390;8.640;2022-11-15T16:32:41;5.90;;;3.63;;
54388;SDS011;40975;50.390;8.640;2022-11-15T16:35:09;5.30;;;3.47;;
54388;SDS011;40975;50.390;8.640;2022-11-15T16:37:36;7.72;;;4.93;;
54388;SDS011;40975;50.390;8.640;2022-11-15T16:40:02;8.77;;;5.18;;
54388;SDS011;40975;50.390;8.640;2022-11-15T16:42:27;7.88;;;4.70;;
54388;SDS011;40975;50.390;8.640;2022-11-15T16:44:53;8.15;;;5.18;;
54388;SDS011;40975;50.390;8.640;2022-11-15T16:47:18;3.35;;;2.90;;
54388;SDS011;40975;50.390;8.640;2022-11-15T16:49:44;6.50;;;3.28;;
54388;SDS011;40975;50.390;8.640;2022-11-15T16:52:09;4.80;;;3.13;;
54388;SDS011;40975;50.390;8.640;2022-11-15T16:54:35;8.75;;;4.18;;
54388;SDS011;40975;50.390;8.640;2022-11-15T16:57:00;7.15;;;4.20;;
54388;SDS011;40975;50.390;8.640;2022-11-15T16:59:25;5.10;;;3.28;;
54388;SDS011;40975;50.390;8.640;2022-11-15T17:01:51;5.55;;;2.83;;
54388;SDS011;40975;50.390;8.640;2022-11-15T17:04:16;5.78;;;3.30;;
54388;SDS011;40975;50.390;8.640;2022-11-15T17:06:44;8.20;;;3.90;;
54388;SDS011;40975;50.390;8.640;2022-11-15T17:09:18;8.00;;;4.13;;
54388;SDS011;40975;50.390;8.640;2022-11-15T17:11:48;5.30;;;3.35;;
54388;SDS011;40975;50.390;8.640;2022-11-15T17:14:14;6.18;;;3.20;;
54388;SDS011;40975;50.390;8.640;2022-11-15T17:16:40;4.25;;;3.13;;
54388;SDS011;40975;50.390;8.640;2022-11-15T17:19:16;4.63;;;3.42;;
54388;SDS011;40975;50.390;8.640;2022-11-15T17:21:43;6.53;;;3.47;;
54388;SDS011;40975;50.390;8.640;2022-11-15T17:24:09;4.47;;;3.33;;
54388;SDS011;40975;50.390;8.640;2022-11-15T17:26:35;2.63;;;2.40;;
54388;SDS011;40975;50.390;8.640;2022-11-15T17:29:01;3.88;;;2.72;;
54388;SDS011;40975;50.390;8.640;2022-11-15T17:31:28;2.95;;;2.40;;
54388;SDS011;40975;50.390;8.640;2022-11-15T17:33:54;5.70;;;3.10;;
54388;SDS011;40975;50.390;8.640;2022-11-15T17:36:20;7.78;;;3.90;;
54388;SDS011;40975;50.390;8.640;2022-11-15T17:38:46;14.63;;;7.30;;